PWSweather.com
Personal Weather Stations
Station Observations

LlefiĆ BadalonaES

Lat: 41.44, Lon: 2.2175

Elevation: 213.254

Station Type: oregon WMR918

http://www.estacionmeteorologicabadalonallefia.com

Latest ConditionsUpdated 3:00:00 PM GMT+01:01 Sunday, Jan 22, 2017
Currently Today's Max Today's Min Today's Average
Temperature 50.5°F10.3°C 52.0°F11.1°C 48.5°F9.2°C 49.9°F9.9°C
Dew Point 39.6°F4.2°C 39.7°F4.3°C 33.4°F0.8°C 36.9°F2.7°C
Winds 6.9 mph NE11.1 kmh NE 15.0 mph NE24.1 kmh NE - 9.6 mph 15.4 kmh
Wind Gusts 12.7 mph20.4 kmh 29.9 mph48.1 kmh - -
Humidity 66% 69% 52% 61%
Pressure 29.77 in1008.1 mb 29.80 in1009.1 mb 29.77 in1008.1 mb -
Hour Temp Dew Point Humidity Winds Wind Gusts Pressure Precip Precip Rate Daily Precip Total
03:00 PM 50.5°F10.3°C 39.6°F4.2°C 66% 6.9 mph NE11.1 kmh NE 12.7 mph20.4 kmh 29.77 in1008.1 mb - 0.00 in0.0 mm 0.00 in0.0 mm
02:45 PM 51.1°F10.6°C 39.7°F4.3°C 65% 9.2 mph NE14.8 kmh NE 16.1 mph25.9 kmh 29.77 in1008.1 mb - 0.00 in0.0 mm 0.00 in0.0 mm
02:30 PM 50.9°F10.5°C 38.7°F3.7°C 63% 10.4 mph NNE16.7 kmh NNE 13.8 mph22.2 kmh 29.77 in1008.1 mb - 0.00 in0.0 mm 0.00 in0.0 mm
02:15 PM 50.9°F10.5°C 38.7°F3.7°C 63% 6.9 mph NE11.1 kmh NE 16.1 mph25.9 kmh 29.77 in1008.1 mb - 0.00 in0.0 mm 0.00 in0.0 mm
02:00 PM 51.0°F10.6°C 38.8°F3.8°C 63% 11.5 mph NE18.5 kmh NE 25.3 mph40.7 kmh 29.77 in1008.1 mb - 0.00 in0.0 mm 0.00 in0.0 mm
01:45 PM 51.4°F10.8°C 38.8°F3.8°C 62% 10.4 mph NNE16.7 kmh NNE 18.4 mph29.6 kmh 29.77 in1008.1 mb - 0.00 in0.0 mm 0.00 in0.0 mm
01:30 PM 51.8°F11.0°C 38.8°F3.8°C 61% 5.8 mph ENE9.3 kmh ENE 10.4 mph16.7 kmh 29.77 in1008.1 mb - 0.00 in0.0 mm 0.00 in0.0 mm
01:15 PM 52.0°F11.1°C 38.5°F3.6°C 60% 8.1 mph E13.0 kmh E 8.1 mph13.0 kmh 29.77 in1008.1 mb - 0.00 in0.0 mm 0.00 in0.0 mm
01:00 PM 52.0°F11.1°C 37.7°F3.2°C 58% 9.2 mph NW14.8 kmh NW 10.4 mph16.7 kmh 29.77 in1008.1 mb - 0.00 in0.0 mm 0.00 in0.0 mm
12:45 PM 52.0°F11.1°C 37.7°F3.2°C 58% 10.4 mph NE16.7 kmh NE 21.9 mph35.2 kmh 29.80 in1009.1 mb - 0.00 in0.0 mm 0.00 in0.0 mm
12:30 PM 51.6°F10.9°C 37.3°F2.9°C 58% 8.1 mph NE13.0 kmh NE 13.8 mph22.2 kmh 29.80 in1009.1 mb - 0.00 in0.0 mm 0.00 in0.0 mm
12:15 PM 51.3°F10.7°C 37.0°F2.8°C 58% 11.5 mph NE18.5 kmh NE 16.1 mph25.9 kmh 29.80 in1009.1 mb - 0.00 in0.0 mm 0.00 in0.0 mm
12:00 PM 51.1°F10.6°C 36.4°F2.4°C 57% 11.5 mph NE18.5 kmh NE 19.6 mph31.5 kmh 29.80 in1009.1 mb - 0.00 in0.0 mm 0.00 in0.0 mm
11:45 AM 51.1°F10.6°C 36.4°F2.4°C 57% 8.1 mph NE13.0 kmh NE 18.4 mph29.6 kmh 29.80 in1009.1 mb - 0.00 in0.0 mm 0.00 in0.0 mm
11:30 AM 50.9°F10.5°C 36.2°F2.3°C 57% 13.8 mph NNE22.2 kmh NNE 16.1 mph25.9 kmh 29.80 in1009.1 mb - 0.00 in0.0 mm 0.00 in0.0 mm
11:15 AM 50.9°F10.5°C 36.2°F2.3°C 57% 9.2 mph NNE14.8 kmh NNE 18.4 mph29.6 kmh 29.80 in1009.1 mb - 0.00 in0.0 mm 0.00 in0.0 mm
11:00 AM 51.1°F10.6°C 35.9°F2.2°C 56% 11.5 mph N18.5 kmh N 10.4 mph16.7 kmh 29.80 in1009.1 mb - 0.00 in0.0 mm 0.00 in0.0 mm
10:45 AM 51.1°F10.6°C 35.9°F2.2°C 56% 8.1 mph NE13.0 kmh NE 21.9 mph35.2 kmh 29.80 in1009.1 mb - 0.00 in0.0 mm 0.00 in0.0 mm
10:30 AM 50.9°F10.5°C 35.7°F2.1°C 56% 10.4 mph NE16.7 kmh NE 19.6 mph31.5 kmh 29.77 in1008.1 mb - 0.00 in0.0 mm 0.00 in0.0 mm
10:15 AM 50.7°F10.4°C 36.0°F2.2°C 57% 8.1 mph NE13.0 kmh NE 25.3 mph40.7 kmh 29.77 in1008.1 mb - 0.00 in0.0 mm 0.00 in0.0 mm
10:00 AM 50.5°F10.3°C 36.7°F2.6°C 59% 8.1 mph NE13.0 kmh NE 16.1 mph25.9 kmh 29.77 in1008.1 mb - 0.00 in0.0 mm 0.00 in0.0 mm
09:45 AM 50.4°F10.2°C 36.6°F2.6°C 59% 10.4 mph NE16.7 kmh NE 23.0 mph37.0 kmh 29.77 in1008.1 mb - 0.00 in0.0 mm 0.00 in0.0 mm
09:30 AM 50.0°F10.0°C 37.5°F3.1°C 62% 10.4 mph NE16.7 kmh NE 18.4 mph29.6 kmh 29.77 in1008.1 mb - 0.00 in0.0 mm 0.00 in0.0 mm
09:15 AM 49.6°F9.8°C 38.3°F3.5°C 65% 10.4 mph NE16.7 kmh NE 16.1 mph25.9 kmh 29.77 in1008.1 mb - 0.00 in0.0 mm 0.00 in0.0 mm
09:00 AM 49.3°F9.6°C 38.8°F3.8°C 67% 11.5 mph NE18.5 kmh NE 19.6 mph31.5 kmh 29.77 in1008.1 mb - 0.00 in0.0 mm 0.00 in0.0 mm
08:45 AM 49.4°F9.7°C 38.5°F3.6°C 66% 9.2 mph NNE14.8 kmh NNE 15.0 mph24.1 kmh 29.77 in1008.1 mb - 0.00 in0.0 mm 0.00 in0.0 mm
08:30 AM 49.6°F9.8°C 38.0°F3.3°C 64% 10.4 mph NE16.7 kmh NE 26.5 mph42.6 kmh 29.77 in1008.1 mb - 0.00 in0.0 mm 0.00 in0.0 mm
08:15 AM 49.5°F9.7°C 37.8°F3.2°C 64% 8.1 mph NE13.0 kmh NE 20.7 mph33.3 kmh 29.77 in1008.1 mb - 0.00 in0.0 mm 0.00 in0.0 mm
08:00 AM 49.3°F9.6°C 37.6°F3.1°C 64% 11.5 mph NE18.5 kmh NE 20.7 mph33.3 kmh 29.77 in1008.1 mb - 0.00 in0.0 mm 0.00 in0.0 mm
07:45 AM 49.3°F9.6°C 37.6°F3.1°C 64% 13.8 mph NE22.2 kmh NE 23.0 mph37.0 kmh 29.77 in1008.1 mb - 0.00 in0.0 mm 0.00 in0.0 mm
07:30 AM 49.1°F9.5°C 37.8°F3.2°C 65% 10.4 mph NE16.7 kmh NE 19.6 mph31.5 kmh 29.77 in1008.1 mb - 0.00 in0.0 mm 0.00 in0.0 mm
07:15 AM 48.9°F9.4°C 38.1°F3.4°C 66% 8.1 mph NE13.0 kmh NE 16.1 mph25.9 kmh 29.77 in1008.1 mb - 0.00 in0.0 mm 0.00 in0.0 mm
07:00 AM 49.1°F9.5°C 38.2°F3.4°C 66% 8.1 mph NE13.0 kmh NE 16.1 mph25.9 kmh 29.77 in1008.1 mb - 0.00 in0.0 mm 0.00 in0.0 mm
06:45 AM 48.9°F9.4°C 38.8°F3.8°C 68% 6.9 mph NNE11.1 kmh NNE 16.1 mph25.9 kmh 29.77 in1008.1 mb - 0.00 in0.0 mm 0.00 in0.0 mm
06:15 AM 48.6°F9.2°C 38.8°F3.8°C 69% 10.4 mph E16.7 kmh E 23.0 mph37.0 kmh 29.77 in1008.1 mb - 0.00 in0.0 mm 0.00 in0.0 mm
06:00 AM 48.5°F9.2°C 37.3°F2.9°C 65% 11.5 mph NNE18.5 kmh NNE 17.3 mph27.8 kmh 29.77 in1008.1 mb - 0.00 in0.0 mm 0.00 in0.0 mm
05:45 AM 48.6°F9.2°C 36.5°F2.5°C 63% 11.5 mph NE18.5 kmh NE 19.6 mph31.5 kmh 29.77 in1008.1 mb - 0.00 in0.0 mm 0.00 in0.0 mm
05:30 AM 48.9°F9.4°C 36.5°F2.5°C 62% 3.5 mph NE5.6 kmh NE 11.5 mph18.5 kmh 29.77 in1008.1 mb - 0.00 in0.0 mm 0.00 in0.0 mm
05:15 AM 49.1°F9.5°C 37.0°F2.8°C 63% 9.2 mph ENE14.8 kmh ENE 15.0 mph24.1 kmh 29.77 in1008.1 mb - 0.00 in0.0 mm 0.00 in0.0 mm
05:00 AM 49.1°F9.5°C 36.2°F2.3°C 61% 8.1 mph NE13.0 kmh NE 11.5 mph18.5 kmh 29.77 in1008.1 mb - 0.00 in0.0 mm 0.00 in0.0 mm
04:45 AM 49.0°F9.4°C 35.7°F2.1°C 60% 12.7 mph NE20.4 kmh NE 13.8 mph22.2 kmh 29.77 in1008.1 mb - 0.00 in0.0 mm 0.00 in0.0 mm
04:30 AM 48.9°F9.4°C 35.2°F1.8°C 59% 10.4 mph NE16.7 kmh NE 20.7 mph33.3 kmh 29.77 in1008.1 mb - 0.00 in0.0 mm 0.00 in0.0 mm
04:15 AM 49.1°F9.5°C 36.2°F2.3°C 61% 13.8 mph NE22.2 kmh NE 16.1 mph25.9 kmh 29.77 in1008.1 mb - 0.00 in0.0 mm 0.00 in0.0 mm
04:00 AM 49.4°F9.7°C 36.1°F2.3°C 60% 10.4 mph NNE16.7 kmh NNE 29.9 mph48.1 kmh 29.77 in1008.1 mb - 0.00 in0.0 mm 0.00 in0.0 mm
03:45 AM 49.6°F9.8°C 36.3°F2.4°C 60% 13.8 mph NE22.2 kmh NE 27.6 mph44.4 kmh 29.77 in1008.1 mb - 0.00 in0.0 mm 0.00 in0.0 mm
03:30 AM 49.6°F9.8°C 36.7°F2.6°C 61% 8.1 mph NE13.0 kmh NE 21.9 mph35.2 kmh 29.77 in1008.1 mb - 0.00 in0.0 mm 0.00 in0.0 mm
03:15 AM 49.5°F9.7°C 36.6°F2.6°C 61% 8.1 mph ENE13.0 kmh ENE 10.4 mph16.7 kmh 29.80 in1009.1 mb - 0.00 in0.0 mm 0.00 in0.0 mm
03:00 AM 49.3°F9.6°C 36.8°F2.7°C 62% 11.5 mph NE18.5 kmh NE 16.1 mph25.9 kmh 29.80 in1009.1 mb - 0.00 in0.0 mm 0.00 in0.0 mm
02:45 AM 49.2°F9.6°C 36.7°F2.6°C 62% 9.2 mph NE14.8 kmh NE 19.6 mph31.5 kmh 29.77 in1008.1 mb - 0.00 in0.0 mm 0.00 in0.0 mm
02:30 AM 49.1°F9.5°C 36.2°F2.3°C 61% 9.2 mph NE14.8 kmh NE 17.3 mph27.8 kmh 29.77 in1008.1 mb - 0.00 in0.0 mm 0.00 in0.0 mm
02:15 AM 48.7°F9.3°C 35.9°F2.2°C 61% 11.5 mph NE18.5 kmh NE 24.2 mph38.9 kmh 29.80 in1009.1 mb - 0.00 in0.0 mm 0.00 in0.0 mm
02:00 AM 48.7°F9.3°C 35.9°F2.2°C 61% 9.2 mph NE14.8 kmh NE 11.5 mph18.5 kmh 29.77 in1008.1 mb - 0.00 in0.0 mm 0.00 in0.0 mm
01:45 AM 48.9°F9.4°C 36.0°F2.2°C 61% 4.6 mph N7.4 kmh N 10.4 mph16.7 kmh 29.77 in1008.1 mb - 0.00 in0.0 mm 0.00 in0.0 mm
01:30 AM 49.1°F9.5°C 35.4°F1.9°C 59% 8.1 mph N13.0 kmh N 10.4 mph16.7 kmh 29.80 in1009.1 mb - 0.00 in0.0 mm 0.00 in0.0 mm
01:15 AM 49.3°F9.6°C 35.1°F1.7°C 58% 5.8 mph NE9.3 kmh NE 15.0 mph24.1 kmh 29.80 in1009.1 mb - 0.00 in0.0 mm 0.00 in0.0 mm
01:00 AM 49.5°F9.7°C 35.3°F1.8°C 58% 8.1 mph NE13.0 kmh NE 11.5 mph18.5 kmh 29.80 in1009.1 mb - 0.00 in0.0 mm 0.00 in0.0 mm
12:45 AM 49.6°F9.8°C 35.0°F1.7°C 57% 9.2 mph NE14.8 kmh NE 17.3 mph27.8 kmh 29.80 in1009.1 mb - 0.00 in0.0 mm 0.00 in0.0 mm
12:30 AM 49.8°F9.9°C 34.7°F1.5°C 56% 15.0 mph NE24.1 kmh NE 17.3 mph27.8 kmh 29.80 in1009.1 mb - 0.00 in0.0 mm 0.00 in0.0 mm
12:15 AM 50.2°F10.1°C 33.7°F0.9°C 53% 9.2 mph NE14.8 kmh NE 16.1 mph25.9 kmh 29.80 in1009.1 mb - 0.00 in0.0 mm 0.00 in0.0 mm
12:00 AM 50.4°F10.2°C 33.4°F0.8°C 52% 6.9 mph ENE11.1 kmh ENE 16.1 mph25.9 kmh 29.80 in1009.1 mb - 0.00 in0.0 mm 0.00 in0.0 mm